createdAt,value
2019-04-06T00:01:05.357Z,96291.38
2019-04-06T00:03:32.009Z,96299.30
2019-04-06T00:05:58.777Z,96293.67
2019-04-06T00:08:25.615Z,96293.50
2019-04-06T00:10:52.482Z,96293.30
2019-04-06T00:13:19.250Z,96297.95
2019-04-06T00:15:46.022Z,96299.11
2019-04-06T00:18:12.668Z,96296.99
2019-04-06T00:20:39.323Z,96294.38
2019-04-06T00:23:05.984Z,96298.23
2019-04-06T00:25:43.484Z,96289.60
2019-04-06T00:28:01.240Z,96293.73
2019-04-06T00:30:30.885Z,96286.51
2019-04-06T00:33:01.474Z,96289.77
2019-04-06T00:35:28.031Z,96284.66
2019-04-06T00:37:54.607Z,96277.12
2019-04-06T00:40:21.268Z,96280.13
2019-04-06T00:42:47.923Z,96272.60
2019-04-06T00:45:14.586Z,96279.41
2019-04-06T00:47:42.282Z,96284.31
2019-04-06T00:50:09.119Z,96283.05
2019-04-06T00:52:35.644Z,96284.48
2019-04-06T00:55:02.429Z,96286.12
2019-04-06T00:57:29.361Z,96292.13
2019-04-06T00:59:56.132Z,96288.16
2019-04-06T01:02:22.952Z,96287.39
2019-04-06T01:04:49.659Z,96286.33
2019-04-06T01:07:16.366Z,96293.98
2019-04-06T01:09:43.117Z,96293.47
2019-04-06T01:12:09.776Z,96296.52
2019-04-06T01:14:36.533Z,96294.42
2019-04-06T01:17:03.425Z,96292.82
2019-04-06T01:19:30.136Z,96286.13
2019-04-06T01:21:56.784Z,96289.39
2019-04-06T01:24:23.553Z,96293.48
2019-04-06T01:26:50.206Z,96297.28
2019-04-06T01:29:16.853Z,96298.67
2019-04-06T01:31:43.535Z,96295.75
2019-04-06T01:34:10.070Z,96295.53
2019-04-06T01:36:36.617Z,96298.27
2019-04-06T01:39:04.917Z,96302.44
2019-04-06T01:41:31.585Z,96305.47
2019-04-06T01:43:58.295Z,96294.98
2019-04-06T01:46:25.052Z,96300.12
2019-04-06T01:48:51.987Z,96294.80
2019-04-06T01:51:18.639Z,96290.23
2019-04-06T01:53:45.312Z,96290.81
2019-04-06T01:56:18.434Z,96298.95
2019-04-06T01:58:40.631Z,96291.13
2019-04-06T02:01:29.825Z,96287.63
2019-04-06T02:03:56.585Z,96289.56
2019-04-06T02:06:23.429Z,96284.45
2019-04-06T02:08:54.202Z,96287.19
2019-04-06T02:11:21.078Z,96286.96
2019-04-06T02:13:47.741Z,96288.34
2019-04-06T02:16:14.479Z,96283.55
2019-04-06T02:18:41.129Z,96283.59
2019-04-06T02:21:07.910Z,96289.59
2019-04-06T02:23:34.563Z,96285.58
2019-04-06T02:26:01.332Z,96285.90
2019-04-06T02:28:28.017Z,96295.93
2019-04-06T02:31:14.331Z,96298.63
2019-04-06T02:34:03.550Z,96300.02
2019-04-06T02:36:48.430Z,96297.34
2019-04-06T02:39:45.696Z,96303.29
2019-04-06T02:42:16.935Z,96302.48
2019-04-06T02:44:43.645Z,96299.27
2019-04-06T02:47:10.369Z,96304.09
2019-04-06T02:49:37.167Z,96294.90
2019-04-06T02:52:03.826Z,96300.30
2019-04-06T02:54:30.472Z,96298.14
2019-04-06T02:56:57.308Z,96307.05
2019-04-06T02:59:24.058Z,96300.81
2019-04-06T03:01:50.842Z,96299.20
2019-04-06T03:04:17.578Z,96298.09
2019-04-06T03:06:44.394Z,96304.81
2019-04-06T03:09:11.983Z,96306.42
2019-04-06T03:11:38.964Z,96295.06
2019-04-06T03:14:06.104Z,96295.33
2019-04-06T03:16:32.896Z,96296.67
2019-04-06T03:18:59.595Z,96287.25
2019-04-06T03:21:26.377Z,96298.31
2019-04-06T03:23:53.122Z,96301.02
2019-04-06T03:26:19.959Z,96304.52
2019-04-06T03:28:46.864Z,96304.23
2019-04-06T03:31:13.676Z,96310.18
2019-04-06T03:33:40.502Z,96305.55
2019-04-06T03:36:07.539Z,96307.45
2019-04-06T03:38:34.287Z,96305.27
2019-04-06T03:41:01.017Z,96296.55
2019-04-06T03:43:27.779Z,96301.95
2019-04-06T03:45:54.384Z,96301.38
2019-04-06T03:48:21.125Z,96299.70
2019-04-06T03:50:47.940Z,96296.73
2019-04-06T03:53:14.788Z,96304.55
2019-04-06T03:55:41.453Z,96306.97
2019-04-06T03:58:08.113Z,96302.38
2019-04-06T04:00:34.791Z,96295.61
2019-04-06T04:03:01.690Z,96289.41
2019-04-06T04:05:28.450Z,96284.00
2019-04-06T04:07:55.197Z,96287.50
2019-04-06T04:10:30.113Z,96291.27
2019-04-06T04:12:57.218Z,96284.77
2019-04-06T04:15:23.878Z,96287.98
2019-04-06T04:17:53.139Z,96287.44
2019-04-06T04:20:19.833Z,96291.75
2019-04-06T04:22:46.575Z,96288.75
2019-04-06T04:25:13.330Z,96288.47
2019-04-06T04:27:40.754Z,96288.47
2019-04-06T04:30:07.425Z,96286.28
2019-04-06T04:32:34.295Z,96280.03
2019-04-06T04:35:00.923Z,96285.70
2019-04-06T04:37:27.666Z,96284.05
2019-04-06T04:39:54.393Z,96283.76
2019-04-06T04:42:21.213Z,96285.66
2019-04-06T04:44:47.849Z,96284.02
2019-04-06T04:47:15.675Z,96285.88
2019-04-06T04:49:42.760Z,96285.84
2019-04-06T04:52:09.440Z,96290.70
2019-04-06T04:54:36.251Z,96290.41
2019-04-06T04:57:02.964Z,96290.41
2019-04-06T04:59:29.871Z,96291.22
2019-04-06T05:01:56.462Z,96300.94
2019-04-06T05:04:23.378Z,96295.23
2019-04-06T05:06:52.600Z,96305.20
2019-04-06T05:09:19.631Z,96301.95
2019-04-06T05:11:48.957Z,96301.38
2019-04-06T05:14:52.536Z,96306.48
2019-04-06T05:17:19.214Z,96314.02
2019-04-06T05:19:46.088Z,96304.20
2019-04-06T05:22:13.005Z,96317.17
2019-04-06T05:24:39.664Z,96321.48
2019-04-06T05:27:06.481Z,96318.23
2019-04-06T05:29:33.665Z,96323.63
2019-04-06T05:32:02.549Z,96323.09
2019-04-06T05:34:29.267Z,96327.66
2019-04-06T05:36:57.137Z,96329.81
2019-04-06T05:39:23.909Z,96328.17
2019-04-06T05:41:51.179Z,96334.34
2019-04-06T05:44:17.974Z,96329.73
2019-04-06T05:46:44.636Z,96334.56
2019-04-06T05:49:11.490Z,96329.41
2019-04-06T05:51:38.376Z,96329.92
2019-04-06T05:54:05.146Z,96342.31
2019-04-06T05:56:31.789Z,96340.92
2019-04-06T05:58:58.451Z,96337.05
2019-04-06T06:01:25.295Z,96338.66
2019-04-06T06:03:52.108Z,96340.23
2019-04-06T06:06:18.814Z,96332.63
2019-04-06T06:08:45.474Z,96336.64
2019-04-06T06:11:12.278Z,96335.50
2019-04-06T06:13:39.440Z,96337.63
2019-04-06T06:16:06.085Z,96333.48
2019-04-06T06:18:32.862Z,96336.03
2019-04-06T06:20:59.480Z,96334.02
2019-04-06T06:23:27.290Z,96341.75
2019-04-06T06:25:54.075Z,96347.92
2019-04-06T06:28:20.793Z,96347.56
2019-04-06T06:30:47.515Z,96345.06
2019-04-06T06:33:14.352Z,96347.17
2019-04-06T06:35:41.074Z,96341.72
2019-04-06T06:38:08.088Z,96343.53
2019-04-06T06:40:34.728Z,96343.74
2019-04-06T06:43:01.546Z,96345.30
2019-04-06T06:45:28.242Z,96345.19
2019-04-06T06:47:54.895Z,96344.55
2019-04-06T06:50:21.568Z,96344.70
2019-04-06T06:52:48.871Z,96344.81
2019-04-06T06:55:15.636Z,96342.69
2019-04-06T06:57:42.293Z,96341.39
2019-04-06T07:00:09.092Z,96349.54
2019-04-06T07:02:35.848Z,96354.29
2019-04-06T07:05:03.098Z,96355.19
2019-04-06T07:07:29.699Z,96357.72
2019-04-06T07:10:04.466Z,96354.79
2019-04-06T07:12:25.623Z,96350.56
2019-04-06T07:14:52.561Z,96357.34
2019-04-06T07:19:59.293Z,96350.77
2019-04-06T07:22:26.114Z,96353.73
2019-04-06T07:24:52.776Z,96361.69
2019-04-06T07:27:19.597Z,96358.94
2019-04-06T07:29:46.248Z,96362.41
2019-04-06T07:32:13.158Z,96361.98
2019-04-06T07:34:39.823Z,96357.28
2019-04-06T07:37:06.638Z,96357.09
2019-04-06T07:39:33.354Z,96353.99
2019-04-06T07:42:00.127Z,96346.12
2019-04-06T07:44:26.758Z,96350.14
2019-04-06T07:46:53.390Z,96339.77
2019-04-06T07:49:20.374Z,96350.93
2019-04-06T07:51:47.055Z,96348.39
2019-04-06T07:54:13.798Z,96345.72
2019-04-06T07:56:41.541Z,96341.69
2019-04-06T07:59:08.088Z,96334.08
2019-04-06T08:01:34.789Z,96354.16
2019-04-06T08:04:01.521Z,96353.34
2019-04-06T08:06:28.282Z,96350.11
2019-04-06T08:08:55.033Z,96350.98
2019-04-06T08:11:21.750Z,96345.35
2019-04-06T08:13:48.393Z,96349.27
2019-04-06T08:16:15.245Z,96351.08
2019-04-06T08:18:42.112Z,96347.19
2019-04-06T08:21:08.893Z,96346.14
2019-04-06T08:23:35.607Z,96347.20
2019-04-06T08:26:02.402Z,96349.25
2019-04-06T08:28:29.329Z,96350.41
2019-04-06T08:30:56.113Z,96343.59
2019-04-06T08:33:22.787Z,96341.64
2019-04-06T08:35:49.474Z,96339.48
2019-04-06T08:38:16.115Z,96337.31
2019-04-06T08:40:43.237Z,96338.77
2019-04-06T08:43:09.963Z,96340.02
2019-04-06T08:45:36.604Z,96321.80
2019-04-06T08:48:03.419Z,96326.59
2019-04-06T08:50:30.090Z,96324.30
2019-04-06T08:52:56.926Z,96322.59
2019-04-06T08:55:23.473Z,96319.55
2019-04-06T08:57:50.211Z,96318.80
2019-04-06T09:00:18.030Z,96320.66
2019-04-06T09:02:44.803Z,96323.62
2019-04-06T09:05:12.050Z,96324.30
2019-04-06T09:07:40.754Z,96321.61
2019-04-06T09:10:07.502Z,96327.34
2019-04-06T09:12:34.226Z,96323.66
2019-04-06T09:15:00.782Z,96325.07
2019-04-06T09:17:27.596Z,96324.19
2019-04-06T09:19:54.594Z,96318.25
2019-04-06T09:22:21.291Z,96316.62
2019-04-06T09:24:48.149Z,96316.05
2019-04-06T09:27:14.981Z,96312.19
2019-04-06T09:29:41.638Z,96309.19
2019-04-06T09:32:08.594Z,96299.23
2019-04-06T09:34:35.230Z,96308.73
2019-04-06T09:37:02.073Z,96295.47
2019-04-06T09:39:28.807Z,96295.25
2019-04-06T09:41:55.813Z,96294.57
2019-04-06T09:44:42.185Z,96288.82
2019-04-06T09:47:28.960Z,96293.88
2019-04-06T09:50:04.901Z,96284.94
2019-04-06T09:52:38.208Z,96278.20
2019-04-06T09:55:24.709Z,96279.30
2019-04-06T09:58:16.993Z,96284.58
2019-04-06T10:00:58.538Z,96287.30
2019-04-06T10:03:50.543Z,96279.75
2019-04-06T10:06:29.036Z,96283.23
2019-04-06T10:09:18.003Z,96278.84
